createdAt,value
2019-03-19T00:02:26.870Z,2.65
2019-03-19T00:05:15.380Z,3.50
2019-03-19T00:08:04.400Z,3.75
2019-03-19T00:10:53.442Z,4.20
2019-03-19T00:13:43.037Z,4.75
2019-03-19T00:16:32.785Z,3.63
2019-03-19T00:19:22.682Z,3.75
2019-03-19T00:22:11.688Z,5.05
2019-03-19T00:25:00.678Z,3.72
2019-03-19T00:27:50.111Z,3.45
2019-03-19T00:30:39.774Z,4.97
2019-03-19T00:33:28.871Z,3.67
2019-03-19T00:36:17.998Z,3.80
2019-03-19T00:39:08.285Z,4.60
2019-03-19T00:41:57.792Z,4.50
2019-03-19T00:44:46.943Z,4.97
2019-03-19T00:47:35.494Z,3.05
2019-03-19T00:50:25.079Z,4.10
2019-03-19T00:53:14.344Z,4.25
2019-03-19T00:56:03.918Z,3.00
2019-03-19T00:58:52.569Z,3.40
2019-03-19T01:01:41.728Z,3.50
2019-03-19T01:04:31.175Z,3.22
2019-03-19T01:07:20.783Z,3.60
2019-03-19T01:10:13.046Z,3.55
2019-03-19T01:13:02.388Z,2.65
2019-03-19T01:15:51.387Z,3.20
2019-03-19T01:18:40.010Z,2.72
2019-03-19T01:21:29.072Z,2.65
2019-03-19T01:24:18.030Z,3.15
2019-03-19T01:27:07.612Z,3.55
2019-03-19T01:29:56.488Z,3.00
2019-03-19T01:32:45.834Z,2.50
2019-03-19T01:35:35.020Z,2.67
2019-03-19T01:38:24.275Z,3.30
2019-03-19T01:41:13.242Z,4.20
2019-03-19T01:44:02.611Z,3.50
2019-03-19T01:46:52.030Z,3.12
2019-03-19T01:49:40.941Z,3.73
2019-03-19T01:52:29.877Z,2.90
2019-03-19T01:55:18.762Z,3.17
2019-03-19T01:58:08.442Z,2.70
2019-03-19T02:00:57.023Z,3.45
2019-03-19T02:03:46.370Z,3.95
2019-03-19T02:06:35.610Z,3.60
2019-03-19T02:09:25.022Z,3.10
2019-03-19T02:12:13.981Z,2.75
2019-03-19T02:15:03.343Z,4.70
2019-03-19T02:17:52.435Z,3.33
2019-03-19T02:20:41.782Z,4.00
2019-03-19T02:23:30.739Z,2.80
2019-03-19T02:26:19.914Z,3.10
2019-03-19T02:29:10.862Z,2.98
2019-03-19T02:32:00.305Z,3.35
2019-03-19T02:34:49.867Z,3.22
2019-03-19T02:37:38.639Z,2.87
2019-03-19T02:40:27.698Z,2.75
2019-03-19T02:43:16.695Z,2.87
2019-03-19T02:46:05.931Z,2.95
2019-03-19T02:48:55.348Z,2.30
2019-03-19T02:51:44.841Z,4.33
2019-03-19T02:54:34.070Z,2.77
2019-03-19T02:57:22.998Z,2.52
2019-03-19T03:00:19.387Z,3.45
2019-03-19T03:03:08.218Z,3.10
2019-03-19T03:05:57.680Z,2.62
2019-03-19T03:08:46.866Z,3.58
2019-03-19T03:11:36.215Z,2.17
2019-03-19T03:14:25.172Z,3.30
2019-03-19T03:17:15.127Z,2.80
2019-03-19T03:20:06.060Z,2.87
2019-03-19T03:22:55.234Z,3.35
2019-03-19T03:25:44.188Z,2.98
2019-03-19T03:28:33.620Z,2.67
2019-03-19T03:31:22.314Z,2.63
2019-03-19T03:34:12.023Z,2.65
2019-03-19T03:37:01.032Z,2.73
2019-03-19T03:39:50.124Z,3.80
2019-03-19T03:42:38.758Z,2.50
2019-03-19T03:45:28.164Z,2.70
2019-03-19T03:48:17.025Z,2.58
2019-03-19T03:51:06.383Z,2.80
2019-03-19T03:53:55.459Z,3.05
2019-03-19T03:56:44.503Z,3.57
2019-03-19T03:59:34.053Z,2.98
2019-03-19T04:02:22.785Z,2.90
2019-03-19T04:05:11.952Z,2.80
2019-03-19T04:08:00.917Z,3.80
2019-03-19T04:10:49.836Z,3.27
2019-03-19T04:13:38.862Z,2.83
2019-03-19T04:16:28.385Z,2.62
2019-03-19T04:19:17.813Z,2.35
2019-03-19T04:22:07.223Z,4.45
2019-03-19T04:24:56.124Z,2.80
2019-03-19T04:27:45.357Z,3.15
2019-03-19T04:30:34.630Z,4.00
2019-03-19T04:33:23.733Z,2.70
2019-03-19T04:36:12.906Z,2.98
2019-03-19T04:39:02.124Z,2.52
2019-03-19T04:41:51.238Z,2.67
2019-03-19T04:44:39.955Z,2.67
2019-03-19T04:47:28.867Z,2.52
2019-03-19T04:50:18.130Z,3.30
2019-03-19T04:53:07.105Z,2.95
2019-03-19T04:55:56.724Z,2.30
2019-03-19T04:58:46.192Z,2.52
2019-03-19T05:01:35.557Z,2.65
2019-03-19T05:04:24.729Z,2.87
2019-03-19T05:07:13.872Z,2.90
2019-03-19T05:10:03.374Z,2.70
2019-03-19T05:12:52.495Z,2.30
2019-03-19T05:15:41.194Z,2.65
2019-03-19T05:18:31.507Z,3.15
2019-03-19T05:21:20.564Z,2.92
2019-03-19T05:24:09.920Z,1.92
2019-03-19T05:26:59.193Z,2.25
2019-03-19T05:29:48.600Z,2.70
2019-03-19T05:32:38.134Z,2.40
2019-03-19T05:35:27.134Z,2.98
2019-03-19T05:38:16.373Z,2.85
2019-03-19T05:41:06.302Z,2.45
2019-03-19T05:43:55.105Z,2.30
2019-03-19T05:46:44.543Z,2.40
2019-03-19T05:49:33.445Z,2.87
2019-03-19T05:52:22.545Z,2.85
2019-03-19T05:55:12.551Z,3.37
2019-03-19T05:58:01.877Z,2.98
2019-03-19T06:00:51.087Z,2.90
2019-03-19T06:03:40.405Z,2.45
2019-03-19T06:06:29.495Z,3.00
2019-03-19T06:09:19.052Z,4.00
2019-03-19T06:12:08.147Z,4.40
2019-03-19T06:14:57.896Z,3.08
2019-03-19T07:13:58.120Z,3.20
2019-03-19T07:25:12.442Z,3.47
2019-03-19T07:28:01.901Z,3.60
2019-03-19T07:30:50.629Z,3.00
2019-03-19T07:33:40.029Z,3.05
2019-03-19T07:36:29.027Z,3.87
2019-03-19T07:39:18.572Z,3.30
2019-03-19T07:42:08.236Z,4.50
2019-03-19T07:44:57.315Z,3.62
2019-03-19T07:47:46.549Z,2.77
2019-03-19T07:50:36.057Z,4.12
2019-03-19T07:53:26.576Z,4.70
2019-03-19T07:56:15.582Z,3.05
2019-03-19T07:59:04.587Z,4.22
2019-03-19T08:01:54.250Z,3.15
2019-03-19T08:04:43.522Z,6.58
2019-03-19T08:07:33.208Z,3.50
2019-03-19T08:10:22.547Z,3.77
2019-03-19T08:13:11.864Z,3.08
2019-03-19T08:16:00.374Z,3.72
2019-03-19T08:18:49.672Z,2.70
2019-03-19T08:21:38.738Z,3.00
2019-03-19T08:24:27.587Z,2.80
2019-03-19T08:27:17.174Z,3.20
2019-03-19T08:30:19.606Z,3.20
2019-03-19T08:33:09.018Z,2.92
2019-03-19T08:36:08.730Z,2.72
2019-03-19T08:38:48.683Z,3.20
2019-03-19T08:41:38.148Z,2.47
2019-03-19T08:44:28.132Z,3.27
2019-03-19T08:47:17.398Z,2.55
2019-03-19T08:50:13.859Z,3.10
2019-03-19T08:53:03.027Z,2.20
2019-03-19T08:55:52.702Z,2.33
2019-03-19T08:58:42.382Z,2.33
2019-03-19T09:01:31.924Z,2.00
2019-03-19T09:04:20.409Z,2.45
2019-03-19T09:07:09.425Z,2.15
2019-03-19T09:09:58.735Z,2.40
2019-03-19T09:12:48.754Z,2.25
2019-03-19T09:15:38.919Z,2.25
2019-03-19T09:18:28.352Z,2.55
2019-03-19T09:21:17.961Z,2.00
2019-03-19T09:24:07.365Z,2.12
2019-03-19T09:26:56.809Z,2.80
2019-03-19T09:29:45.913Z,3.40
2019-03-19T09:32:34.617Z,2.00
2019-03-19T09:35:26.167Z,4.25
2019-03-19T09:38:14.687Z,3.08
2019-03-19T09:41:04.187Z,2.25
2019-03-19T09:43:53.639Z,2.37
2019-03-19T09:46:43.644Z,2.20
2019-03-19T09:49:32.875Z,2.60
2019-03-19T09:52:22.176Z,2.00
2019-03-19T09:55:13.216Z,2.62
2019-03-19T09:58:02.466Z,1.98
2019-03-19T10:00:50.841Z,2.22
2019-03-19T10:03:39.848Z,2.25
2019-03-19T10:06:28.667Z,3.17
2019-03-19T10:09:18.203Z,1.30
2019-03-19T10:12:07.416Z,2.30
2019-03-19T10:14:56.853Z,2.50
2019-03-19T10:17:46.207Z,3.00
2019-03-19T10:20:35.389Z,2.95
2019-03-19T10:23:24.205Z,2.50
2019-03-19T10:26:13.343Z,2.45
2019-03-19T10:29:02.128Z,2.40
2019-03-19T10:31:50.999Z,2.33
2019-03-19T10:34:40.302Z,2.02
2019-03-19T10:37:29.421Z,2.05
2019-03-19T10:40:20.113Z,2.75
2019-03-19T10:43:09.051Z,2.35
2019-03-19T10:45:58.429Z,2.10
2019-03-19T10:48:46.890Z,2.27
2019-03-19T10:51:35.936Z,2.10
2019-03-19T11:11:25.620Z,2.13
2019-03-19T11:14:14.701Z,2.27
2019-03-19T11:17:03.764Z,2.27
2019-03-19T11:19:52.670Z,2.60
2019-03-19T11:22:42.193Z,1.90
2019-03-19T11:25:31.684Z,1.72
2019-03-19T11:28:20.724Z,1.70
2019-03-19T11:31:09.464Z,3.65
2019-03-19T11:33:58.426Z,2.10
2019-03-19T11:36:57.383Z,2.20
2019-03-19T11:39:38.003Z,1.98
2019-03-19T11:53:43.532Z,1.80
2019-03-19T11:59:20.842Z,2.30
2019-03-19T12:02:09.526Z,2.10
2019-03-19T12:04:59.181Z,2.27
2019-03-19T12:38:42.190Z,2.50
2019-03-19T12:41:30.984Z,2.05
2019-03-19T12:44:23.078Z,2.40
2019-03-19T12:47:11.966Z,1.90
2019-03-19T12:50:01.359Z,2.52
2019-03-19T12:52:50.825Z,2.65
2019-03-19T12:55:39.812Z,2.37
2019-03-19T12:58:28.942Z,3.20
2019-03-19T13:01:18.366Z,1.65
2019-03-19T13:04:07.373Z,2.30
2019-03-19T13:06:56.399Z,2.20
2019-03-19T13:09:45.096Z,2.72
2019-03-19T13:12:34.364Z,2.37
2019-03-19T13:15:23.713Z,2.08
2019-03-19T13:18:12.707Z,2.65
2019-03-19T13:21:01.650Z,2.22
2019-03-19T13:23:51.138Z,1.62
2019-03-19T13:26:40.448Z,2.85
2019-03-19T13:29:29.902Z,1.87
2019-03-19T13:32:18.976Z,2.22
2019-03-19T13:35:09.656Z,2.22
2019-03-19T13:37:58.484Z,1.70
2019-03-19T13:40:47.889Z,3.67
2019-03-19T13:43:37.448Z,2.83
2019-03-19T13:46:26.930Z,3.22
2019-03-19T13:49:16.292Z,2.65
2019-03-19T13:52:05.471Z,2.27
2019-03-19T13:54:54.707Z,2.58
2019-03-19T13:57:43.709Z,2.90
2019-03-19T14:00:32.674Z,2.60
2019-03-19T14:06:10.608Z,1.90
2019-03-19T14:08:59.855Z,1.80
2019-03-19T14:11:48.971Z,2.65
2019-03-19T14:14:38.780Z,2.37
2019-03-19T14:17:27.845Z,1.92
2019-03-19T14:20:18.585Z,2.27
2019-03-19T14:23:07.991Z,2.25
2019-03-19T14:25:57.008Z,1.90
2019-03-19T14:28:45.806Z,3.40
2019-03-19T14:31:35.244Z,1.55
2019-03-19T14:34:24.228Z,2.20
2019-03-19T14:37:13.418Z,2.52
2019-03-19T14:40:02.418Z,1.82
2019-03-19T14:42:51.807Z,2.50
2019-03-19T15:38:59.833Z,1.60
2019-03-19T15:44:36.934Z,1.80
2019-03-19T15:55:54.391Z,2.60
2019-03-19T15:58:43.659Z,2.20
2019-03-19T16:01:40.292Z,2.90
2019-03-19T16:04:23.843Z,2.25
2019-03-19T16:07:13.105Z,2.72
2019-03-19T16:10:02.578Z,2.60
2019-03-19T16:12:51.940Z,2.00
2019-03-19T16:15:40.773Z,3.25
2019-03-19T16:18:30.671Z,2.75
2019-03-19T16:21:19.346Z,1.80
2019-03-19T16:24:08.205Z,2.35
2019-03-19T16:26:57.559Z,3.40
2019-03-19T16:29:46.721Z,1.90
2019-03-19T16:32:35.656Z,3.05
2019-03-19T16:35:24.574Z,4.10
2019-03-19T16:38:13.766Z,3.07
2019-03-19T16:41:02.998Z,2.37
2019-03-19T16:43:51.989Z,2.90
2019-03-19T16:55:07.736Z,3.20
2019-03-19T16:57:56.872Z,3.00
2019-03-19T17:00:46.451Z,1.55
2019-03-19T17:03:35.806Z,5.30
2019-03-19T17:06:24.642Z,1.40
2019-03-19T17:09:13.423Z,2.55
2019-03-19T17:14:53.911Z,1.67
2019-03-19T17:17:42.889Z,1.72
2019-03-19T17:20:31.863Z,2.60
2019-03-19T17:23:21.231Z,3.50
2019-03-19T17:26:10.485Z,3.15
2019-03-19T17:28:59.363Z,2.70
2019-03-19T17:31:48.007Z,2.55
2019-03-19T17:34:36.914Z,2.87
2019-03-19T17:37:26.338Z,2.30
2019-03-19T17:40:16.607Z,3.00
2019-03-19T17:43:06.310Z,2.52
2019-03-19T17:45:55.343Z,2.30
2019-03-19T17:48:44.651Z,1.55
2019-03-19T17:51:34.018Z,3.70
2019-03-19T17:54:23.095Z,2.92
2019-03-19T17:57:12.761Z,2.70
2019-03-19T18:00:02.116Z,2.47
2019-03-19T18:02:51.507Z,2.10
2019-03-19T18:05:40.158Z,13.85
2019-03-19T18:08:29.220Z,13.28
2019-03-19T18:11:18.808Z,4.17
2019-03-19T18:14:07.998Z,17.45
2019-03-19T18:16:57.339Z,2.85
2019-03-19T18:19:46.322Z,9.15
2019-03-19T18:22:35.160Z,10.32
2019-03-19T18:25:24.130Z,3.15
2019-03-19T18:28:13.498Z,12.20
2019-03-19T18:31:02.169Z,4.17
2019-03-19T18:33:51.727Z,2.80
2019-03-19T18:36:41.174Z,5.95
2019-03-19T18:39:30.665Z,2.77
2019-03-19T18:42:20.147Z,2.75
2019-03-19T18:45:14.268Z,2.95
2019-03-19T18:48:03.705Z,5.72
2019-03-19T18:50:53.104Z,5.42
2019-03-19T18:53:42.346Z,5.58
2019-03-19T18:56:31.758Z,9.60
2019-03-19T18:59:20.984Z,8.25
2019-03-19T19:02:10.055Z,12.63
2019-03-19T19:04:58.822Z,12.75
2019-03-19T19:07:47.939Z,6.85
2019-03-19T19:10:37.207Z,22.58
2019-03-19T19:13:26.828Z,15.38
2019-03-19T19:16:15.695Z,9.73
2019-03-19T19:19:04.435Z,5.83
2019-03-19T19:21:53.370Z,12.18
2019-03-19T19:24:42.860Z,11.35
2019-03-19T19:27:32.145Z,23.67
2019-03-19T19:30:30.320Z,6.92
2019-03-19T19:33:19.501Z,16.05
2019-03-19T19:36:09.057Z,11.95
2019-03-19T19:38:58.539Z,3.40
2019-03-19T19:41:47.432Z,12.70
2019-03-19T19:44:36.788Z,5.20
2019-03-19T19:47:25.839Z,8.15
2019-03-19T19:50:20.462Z,9.43
2019-03-19T19:53:10.213Z,14.95
2019-03-19T19:55:59.278Z,16.30
2019-03-19T19:58:48.345Z,15.93
2019-03-19T20:01:37.893Z,15.40
2019-03-19T20:04:27.190Z,9.63
2019-03-19T20:07:16.365Z,24.80
2019-03-19T20:10:09.818Z,13.13
2019-03-19T20:12:59.197Z,20.80
2019-03-19T20:15:48.408Z,19.98
2019-03-19T20:18:37.739Z,11.83
2019-03-19T20:21:27.284Z,9.30
2019-03-19T20:24:15.878Z,9.58
2019-03-19T20:27:05.143Z,11.05
2019-03-19T20:29:54.393Z,19.30
2019-03-19T20:32:44.001Z,15.05
2019-03-19T20:35:32.944Z,4.47
2019-03-19T20:38:21.805Z,4.42
2019-03-19T20:41:10.316Z,9.60
2019-03-19T20:43:59.416Z,9.20
2019-03-19T20:46:48.246Z,5.78
2019-03-19T20:49:47.573Z,8.15
2019-03-19T20:52:31.659Z,7.10
2019-03-19T20:55:20.709Z,19.77
2019-03-19T20:58:10.173Z,7.87
2019-03-19T21:00:59.596Z,17.15
2019-03-19T21:03:48.606Z,12.23
2019-03-19T21:06:37.735Z,16.00
2019-03-19T21:09:26.937Z,10.75
2019-03-19T21:12:16.298Z,27.27
2019-03-19T21:15:09.701Z,11.45
2019-03-19T21:17:58.672Z,15.30
2019-03-19T21:20:47.740Z,6.17
2019-03-19T21:23:37.076Z,15.90
2019-03-19T21:26:26.189Z,12.82
2019-03-19T21:29:15.717Z,4.65
2019-03-19T21:32:04.797Z,3.85
2019-03-19T21:34:54.155Z,6.47
2019-03-19T21:37:43.430Z,4.30
2019-03-19T21:40:32.075Z,4.93
2019-03-19T21:43:21.136Z,11.97
2019-03-19T21:46:10.226Z,13.88
2019-03-19T21:48:59.579Z,10.70
2019-03-19T21:51:48.736Z,9.25
2019-03-19T21:54:37.913Z,4.20
2019-03-19T21:57:26.976Z,8.30
2019-03-19T22:00:21.636Z,7.45
2019-03-19T22:03:10.860Z,12.53
2019-03-19T22:06:00.528Z,11.25
2019-03-19T22:08:50.405Z,7.80
2019-03-19T22:11:39.721Z,9.45
2019-03-19T22:14:28.741Z,7.92
2019-03-19T22:17:18.071Z,9.93
2019-03-19T22:20:08.404Z,5.83
2019-03-19T22:22:56.970Z,10.03
2019-03-19T22:25:46.325Z,15.15
2019-03-19T22:28:35.698Z,8.03
2019-03-19T22:31:24.799Z,14.43
2019-03-19T22:34:14.619Z,12.47
2019-03-19T22:37:04.311Z,7.78
2019-03-19T22:39:53.775Z,8.93
2019-03-19T22:42:42.584Z,4.78
2019-03-19T22:45:32.351Z,11.48
2019-03-19T22:48:21.592Z,6.00
2019-03-19T22:51:11.296Z,9.18
2019-03-19T22:54:00.278Z,12.37
2019-03-19T22:56:49.114Z,9.35
2019-03-19T22:59:38.279Z,8.50
2019-03-19T23:02:27.849Z,7.42
2019-03-19T23:05:17.597Z,12.13
2019-03-19T23:08:07.237Z,10.15
2019-03-19T23:10:56.382Z,7.83
2019-03-19T23:13:45.215Z,9.85
2019-03-19T23:16:34.569Z,9.95
2019-03-19T23:19:23.859Z,8.30
2019-03-19T23:22:13.154Z,7.53
2019-03-19T23:25:02.459Z,9.30
2019-03-19T23:27:51.894Z,6.45
2019-03-19T23:30:40.916Z,7.37
2019-03-19T23:33:29.513Z,6.62
2019-03-19T23:36:18.579Z,7.80
2019-03-19T23:39:08.028Z,7.00
2019-03-19T23:41:57.732Z,9.58
2019-03-19T23:44:47.480Z,7.05
2019-03-19T23:47:36.906Z,5.20
2019-03-19T23:50:26.234Z,5.97
2019-03-19T23:53:15.314Z,4.33
2019-03-19T23:56:04.194Z,6.87
2019-03-19T23:58:53.350Z,4.47
